Laclede, Missouri
Current Conditions -  °F | °C
As of 2:55 PM on Thursday 23 Oct 2014 (Local Time) from KIRK Reporting Station
Overcast Overcast  
Wind Chill: 18°   Ceiling: 2500
Heat Index: 18°   Visibility: 10mi
Dew Point: 14°   Wind: 8mph
Humidity: 75%   Direction: 220°SW
Pressure: 30.05"   Gusts: NA
Location:  39.79°N, 93.17°W
Report Text: KIRK 231955Z AUTO 22007KT 10SM OVC025 18/14 A3005 RMK AO2 SLP180 T01830139
Loading
Personal Weather Stations






























Interactive Weather Map
Tropical Storm Tracking
New forecast layout! Learn more

10-Day Weather Forecast

Advertisements
Track Severe Weather on mobile